Time;durP1;ratioP1;P1;durP2;ratioP2;P2;SDS_P1;SDS_P2;PMS_P1;PMS_P2;Temp;Humidity;BMP_temperature;BMP_pressure;BME280_temperature;BME280_humidity;BME280_pressure;Samples;Min_cycle;Max_cycle;Signal;HPM_P1;HPM_P2
2021/01/11 00:01:02;;;;;;;24.23;14.23;;;;;;;-6.57;82.20;95985.94;5056674;28;20184;-77
2021/01/11 00:03:27;;;;;;;23.27;14.47;;;;;;;-6.59;82.05;95985.16;5057101;28;20664;-77
2021/01/11 00:05:53;;;;;;;23.93;14.70;;;;;;;-6.53;82.22;95986.72;5057029;28;20617;-77
2021/01/11 00:08:18;;;;;;;24.40;14.07;;;;;;;-6.47;81.79;95988.28;5074824;28;20257;-77
2021/01/11 00:10:43;;;;;;;22.10;14.60;;;;;;;-6.58;82.30;95986.81;5056559;28;20224;-77
2021/01/11 00:13:09;;;;;;;22.77;13.73;;;;;;;-6.59;82.18;95986.84;5040298;28;20191;-77
2021/01/11 00:15:34;;;;;;;24.87;13.87;;;;;;;-6.67;82.45;95981.97;5056895;28;20181;-77
2021/01/11 00:17:59;;;;;;;21.23;14.13;;;;;;;-6.62;82.23;95977.66;5056681;28;20555;-77
2021/01/11 00:20:25;;;;;;;23.83;13.97;;;;;;;-6.70;82.43;95978.69;5056536;28;20192;-77
2021/01/11 00:22:50;;;;;;;20.97;13.53;;;;;;;-6.53;81.73;95984.22;5056970;28;20200;-78
2021/01/11 00:25:15;;;;;;;19.97;12.53;;;;;;;-6.59;81.90;95982.63;5056634;28;20242;-77
2021/01/11 00:27:41;;;;;;;20.73;13.90;;;;;;;-6.57;81.75;95983.44;5074524;28;20569;-77
2021/01/11 00:30:08;;;;;;;22.07;14.00;;;;;;;-6.61;81.84;95979.31;5039737;28;20188;-77
2021/01/11 00:32:34;;;;;;;21.77;13.50;;;;;;;-6.50;80.79;95983.31;5056630;28;20185;-77
2021/01/11 00:35:00;;;;;;;23.43;13.63;;;;;;;-6.59;81.84;95982.63;5056676;28;20203;-77
2021/01/11 00:37:25;;;;;;;20.43;12.57;;;;;;;-6.61;81.15;95971.75;5056493;28;20671;-77
2021/01/11 00:39:52;;;;;;;24.53;13.03;;;;;;;-6.61;80.87;95979.31;5039460;28;20188;-77
2021/01/11 00:42:18;;;;;;;22.67;13.27;;;;;;;-6.61;80.67;95975.97;5048069;28;20233;-77
2021/01/11 00:44:43;;;;;;;21.63;13.70;;;;;;;-6.68;81.00;95972.75;5056376;28;20177;-77
2021/01/11 00:47:09;;;;;;;20.77;12.23;;;;;;;-6.66;81.21;95967.66;5074090;28;20263;-78
2021/01/11 00:49:34;;;;;;;21.63;12.33;;;;;;;-6.68;80.97;95967.69;5073885;28;20192;-77
2021/01/11 00:51:59;;;;;;;17.33;11.83;;;;;;;-6.71;80.92;95962.72;5056254;28;20205;-77
2021/01/11 00:54:24;;;;;;;17.60;11.60;;;;;;;-6.73;81.34;95969.47;5056205;28;20665;-77
2021/01/11 00:56:50;;;;;;;18.90;11.73;;;;;;;-6.68;81.19;95969.38;5073920;28;20259;-77
2021/01/11 00:59:15;;;;;;;20.30;12.27;;;;;;;-6.70;80.49;95964.38;5039230;28;20212;-78
2021/01/11 01:02:07;;;;;;;22.03;12.43;;;;;;;-6.75;80.11;95971.22;5055460;28;20271;-77
2021/01/11 01:04:32;;;;;;;20.93;11.83;;;;;;;-6.70;80.57;95969.41;5063570;28;20189;-77
2021/01/11 01:07:01;;;;;;;18.53;12.10;;;;;;;-6.78;81.05;95966.22;5054876;28;20208;-78
2021/01/11 01:09:26;;;;;;;19.53;12.40;;;;;;;-6.68;80.56;95971.91;5055482;28;20220;-77
2021/01/11 01:11:52;;;;;;;19.07;11.67;;;;;;;-6.75;80.93;95963.63;5055917;28;20220;-77
2021/01/11 01:14:17;;;;;;;19.47;11.43;;;;;;;-6.75;80.13;95971.22;5073802;28;20180;-77
2021/01/11 01:16:42;;;;;;;17.63;11.37;;;;;;;-6.79;80.57;95976.38;5073694;28;20548;-77
2021/01/11 01:19:07;;;;;;;20.17;11.73;;;;;;;-6.83;80.72;95982.34;5073194;28;20188;-77
2021/01/11 01:21:33;;;;;;;19.10;11.67;;;;;;;-6.82;80.89;95984.00;5039184;28;20208;-77
2021/01/11 01:23:58;;;;;;;19.47;12.23;;;;;;;-6.88;80.44;95988.34;5073598;28;20176;-77
2021/01/11 01:26:23;;;;;;;21.37;12.60;;;;;;;-6.91;80.76;95980.81;5055580;28;20239;-77
2021/01/11 01:28:48;;;;;;;21.83;12.50;;;;;;;-6.92;80.94;95983.38;5038557;28;20205;-77
2021/01/11 01:31:14;;;;;;;17.07;11.07;;;;;;;-6.79;80.60;95996.56;5073467;28;20191;-77
2021/01/11 01:33:39;;;;;;;19.50;12.47;;;;;;;-6.88;80.53;95995.06;5073317;28;20188;-77
2021/01/11 01:36:05;;;;;;;18.20;11.53;;;;;;;-6.90;80.74;95999.31;5055364;28;20516;-78
2021/01/11 01:38:30;;;;;;;19.17;11.13;;;;;;;-6.93;80.82;95994.31;5055096;28;20200;-79
2021/01/11 01:40:55;;;;;;;15.90;10.43;;;;;;;-7.00;80.57;96001.19;5055532;28;20181;-77
2021/01/11 01:43:21;;;;;;;22.07;12.23;;;;;;;-7.03;80.92;96003.78;5055374;28;20180;-77
2021/01/11 01:45:46;;;;;;;19.47;11.20;;;;;;;-7.05;81.36;95997.13;5073066;28;20280;-78
2021/01/11 01:48:12;;;;;;;16.47;10.93;;;;;;;-7.06;81.29;96003.03;5038470;28;20211;-77
2021/01/11 01:50:37;;;;;;;18.90;11.50;;;;;;;-6.97;81.47;95996.09;5038256;28;20177;-77
2021/01/11 01:53:05;;;;;;;18.53;11.50;;;;;;;-6.95;80.69;95991.00;5073027;28;20181;-78
2021/01/11 01:55:31;;;;;;;17.80;12.00;;;;;;;-6.99;80.24;95989.41;5055135;28;20180;-77
2021/01/11 01:57:59;;;;;;;20.63;11.80;;;;;;;-7.03;80.59;95976.03;5055176;28;20250;-77
2021/01/11 02:00:24;;;;;;;17.17;10.93;;;;;;;-7.09;80.48;95986.22;5037460;28;20184;-78
2021/01/11 02:02:49;;;;;;;17.37;10.17;;;;;;;-7.13;81.11;95982.94;5054878;28;20219;-77
2021/01/11 02:05:15;;;;;;;17.13;10.13;;;;;;;-7.05;80.43;95985.31;5054682;28;20622;-78
2021/01/11 02:07:51;;;;;;;17.53;10.73;;;;;;;-7.06;80.67;95981.13;5038182;28;20676;-77
2021/01/11 02:10:35;;;;;;;18.10;11.00;;;;;;;-7.10;81.00;95983.75;5037736;28;20674;-77
2021/01/11 02:13:21;;;;;;;15.30;9.70;;;;;;;-6.87;80.25;95979.06;5072472;28;20176;-77
2021/01/11 02:15:55;;;;;;;16.70;10.37;;;;;;;-6.99;80.01;95975.06;5072349;28;20177;-77
2021/01/11 02:18:28;;;;;;;17.40;9.90;;;;;;;-7.08;80.74;95966.88;5054469;28;20545;-78
2021/01/11 02:21:07;;;;;;;18.33;10.60;;;;;;;-6.93;80.20;95969.06;5054494;28;20184;-77
2021/01/11 02:23:55;;;;;;;16.77;9.50;;;;;;;-7.02;80.42;95961.69;5037809;28;20234;-77
2021/01/11 02:26:52;;;;;;;20.53;10.63;;;;;;;-7.02;80.13;95962.53;5054463;28;20205;-77
2021/01/11 02:30:00;;;;;;;17.87;10.23;;;;;;;-7.04;80.50;95958.38;5071927;28;20181;-77
2021/01/11 02:32:26;;;;;;;17.53;10.23;;;;;;;-6.99;80.50;95954.06;5037657;28;20181;-77
2021/01/11 02:34:54;;;;;;;17.87;10.60;;;;;;;-6.99;80.26;95956.56;5070913;28;20229;-77
2021/01/11 02:37:19;;;;;;;16.70;9.80;;;;;;;-6.93;80.11;95957.28;5072076;28;20707;-77
2021/01/11 02:39:44;;;;;;;13.70;9.53;;;;;;;-7.00;80.07;95962.50;5053997;28;20203;-78
2021/01/11 02:42:10;;;;;;;16.20;9.47;;;;;;;-7.00;80.39;95959.97;5054113;28;20173;-77
2021/01/11 02:44:35;;;;;;;18.20;9.90;;;;;;;-6.81;79.76;95948.59;5054217;28;20181;-77
2021/01/11 02:47:00;;;;;;;17.83;10.47;;;;;;;-6.93;79.71;95957.28;5071754;28;20723;-77
2021/01/11 02:49:32;;;;;;;17.23;10.57;;;;;;;-7.02;79.65;95962.53;5070506;28;20222;-77
2021/01/11 02:52:35;;;;;;;16.77;9.40;;;;;;;-7.08;80.46;95966.88;5054032;28;20183;-77
2021/01/11 02:55:06;;;;;;;16.07;10.30;;;;;;;-7.07;80.84;95971.06;5071851;28;20179;-77
2021/01/11 02:57:48;;;;;;;15.33;9.63;;;;;;;-7.16;80.86;95977.94;5053784;28;20769;-77
2021/01/11 03:00:16;;;;;;;16.53;9.53;;;;;;;-7.18;81.26;95972.09;5053661;28;20179;-77
2021/01/11 03:02:43;;;;;;;17.10;10.50;;;;;;;-7.10;80.83;95969.44;5053280;28;20192;-77
2021/01/11 03:05:09;;;;;;;15.70;9.77;;;;;;;-7.10;80.11;95969.44;5070449;28;20181;-77
2021/01/11 03:07:34;;;;;;;15.53;9.17;;;;;;;-7.27;79.84;95969.78;5036890;28;20217;-77
2021/01/11 03:10:00;;;;;;;15.43;10.03;;;;;;;-7.17;80.68;95973.75;5070036;28;20224;-77
2021/01/11 03:12:25;;;;;;;15.93;9.03;;;;;;;-7.25;80.82;95970.56;5087180;28;20184;-77
2021/01/11 03:14:51;;;;;;;13.67;8.67;;;;;;;-7.22;80.28;95970.53;5071595;28;20180;-77
2021/01/11 03:17:16;;;;;;;13.50;9.03;;;;;;;-7.23;80.69;95968.88;5070074;28;20242;-77
2021/01/11 03:19:41;;;;;;;16.07;10.40;;;;;;;-7.26;80.96;95978.16;5086834;28;20219;-77
2021/01/11 03:22:06;;;;;;;17.77;10.57;;;;;;;-7.28;81.16;95978.19;5053548;28;20181;-77
2021/01/11 03:24:32;;;;;;;20.57;11.10;;;;;;;-7.28;81.44;95977.38;5053665;28;20176;-76
2021/01/11 03:27:00;;;;;;;15.63;10.27;;;;;;;-7.34;80.21;95974.97;5053479;28;20212;-77
2021/01/11 03:29:26;;;;;;;16.40;10.03;;;;;;;-7.39;80.49;95962.47;5070677;28;20177;-77
2021/01/11 03:31:51;;;;;;;16.37;10.23;;;;;;;-7.43;80.73;95964.19;5053421;28;20185;-77
2021/01/11 03:34:17;;;;;;;17.17;10.70;;;;;;;-7.45;81.09;95967.59;5053573;28;20268;-77
2021/01/11 03:36:42;;;;;;;18.37;10.47;;;;;;;-7.45;81.02;95962.56;5053429;28;20180;-77
2021/01/11 03:39:10;;;;;;;15.67;9.00;;;;;;;-7.32;80.41;95948.84;5053193;28;20178;-78
2021/01/11 03:41:39;;;;;;;16.30;9.90;;;;;;;-7.36;79.81;95951.47;5053488;28;20176;-77
2021/01/11 03:44:05;;;;;;;14.13;8.87;;;;;;;-7.35;80.31;95943.84;5036648;28;20192;-77
2021/01/11 03:46:31;;;;;;;16.43;9.60;;;;;;;-7.43;80.56;95955.78;5069787;28;20559;-78
2021/01/11 03:48:57;;;;;;;16.30;9.13;;;;;;;-7.47;80.63;95970.16;5053137;28;20197;-77
2021/01/11 03:51:22;;;;;;;14.73;8.70;;;;;;;-7.49;81.01;95963.50;5053430;28;20173;-77
2021/01/11 03:53:48;;;;;;;13.07;8.80;;;;;;;-7.44;80.71;95969.28;5053427;28;20209;-77
2021/01/11 03:56:13;;;;;;;15.00;9.23;;;;;;;-7.51;81.08;95972.75;5053421;28;20176;-77
2021/01/11 03:58:38;;;;;;;14.50;9.13;;;;;;;-7.56;80.79;95977.09;5069434;28;20227;-78
2021/01/11 04:01:04;;;;;;;15.10;8.60;;;;;;;-7.60;80.59;95967.91;5052801;28;20187;-77
2021/01/11 04:03:29;;;;;;;14.10;8.47;;;;;;;-7.49;80.88;95964.31;5053385;28;20189;-77
2021/01/11 04:05:56;;;;;;;13.63;8.60;;;;;;;-7.51;80.52;95963.53;5053130;28;20201;-77
2021/01/11 04:08:21;;;;;;;16.07;8.97;;;;;;;-7.50;80.87;95960.16;5069708;28;20207;-77
2021/01/11 04:10:47;;;;;;;12.33;8.33;;;;;;;-7.54;80.50;95952.66;5052787;28;20280;-78
2021/01/11 04:13:13;;;;;;;11.57;7.83;;;;;;;-7.60;80.88;95951.06;5053152;28;20177;-77
2021/01/11 04:15:38;;;;;;;16.00;8.30;;;;;;;-7.56;80.62;95955.22;5053074;28;20172;-77
2021/01/11 04:18:03;;;;;;;12.83;8.33;;;;;;;-7.60;80.80;95967.91;5053039;28;20703;-78
2021/01/11 04:20:29;;;;;;;13.80;8.53;;;;;;;-7.63;81.06;95961.22;5052861;28;20223;-77
2021/01/11 04:22:56;;;;;;;13.37;8.90;;;;;;;-7.61;81.10;95956.16;5086619;28;20239;-77
2021/01/11 04:25:23;;;;;;;12.23;8.67;;;;;;;-7.63;81.15;95961.22;5036198;28;20173;-77
2021/01/11 04:27:48;;;;;;;11.67;7.73;;;;;;;-7.55;80.83;95966.13;5070819;28;20196;-77
2021/01/11 04:30:14;;;;;;;12.13;7.63;;;;;;;-7.56;80.62;95964.47;5052714;28;20196;-77
2021/01/11 04:32:39;;;;;;;12.20;8.10;;;;;;;-7.58;80.30;95961.97;5036184;28;20181;-77
2021/01/11 04:35:09;;;;;;;12.80;8.77;;;;;;;-7.63;80.72;95953.66;5070841;28;20173;-77
2021/01/11 04:37:37;;;;;;;14.13;8.40;;;;;;;-7.65;80.55;95959.59;5052730;28;20197;-77
2021/01/11 04:40:05;;;;;;;15.47;9.17;;;;;;;-7.65;80.66;95964.66;5052723;28;20224;-78
2021/01/11 04:43:04;;;;;;;13.77;9.30;;;;;;;-7.59;80.75;95962.00;5038501;28;20189;-77
2021/01/11 04:45:29;;;;;;;16.20;8.60;;;;;;;-7.62;80.59;95957.84;5046952;28;20629;-77
2021/01/11 04:47:56;;;;;;;14.60;8.93;;;;;;;-7.62;80.96;95960.38;5039657;28;20296;-77
2021/01/11 04:50:23;;;;;;;13.60;8.23;;;;;;;-7.56;80.71;95956.91;5055985;28;20181;-77
2021/01/11 04:52:48;;;;;;;17.17;9.03;;;;;;;-7.57;80.33;95957.75;5056306;28;20722;-77
2021/01/11 04:55:14;;;;;;;18.73;10.53;;;;;;;-7.49;80.38;95955.94;5056309;28;20185;-77
2021/01/11 04:57:55;;;;;;;17.83;10.70;;;;;;;-7.48;79.90;95948.31;5056212;28;20193;-77
2021/01/11 05:00:22;;;;;;;15.60;9.73;;;;;;;-7.50;80.33;95949.22;5055558;28;20233;-78
2021/01/11 05:02:56;;;;;;;19.73;11.30;;;;;;;-7.45;80.01;95957.53;5074048;28;20265;-76
2021/01/11 05:05:22;;;;;;;22.83;11.87;;;;;;;-7.32;79.77;95948.84;5056012;28;20547;-77
2021/01/11 05:07:47;;;;;;;18.13;10.97;;;;;;;-7.37;79.55;95947.28;5056019;28;20193;-77
2021/01/11 05:10:20;;;;;;;22.63;11.77;;;;;;;-7.32;80.01;95937.94;5055574;28;20591;-77
2021/01/11 05:12:52;;;;;;;18.90;11.30;;;;;;;-7.33;80.11;95947.19;5055960;28;20192;-77
2021/01/11 05:15:19;;;;;;;16.67;9.73;;;;;;;-7.35;80.50;95959.00;5039157;28;20583;-77
2021/01/11 05:17:45;;;;;;;13.43;8.63;;;;;;;-7.24;79.86;95947.03;5055584;28;20205;-77
2021/01/11 05:20:12;;;;;;;13.70;7.47;;;;;;;-7.28;79.80;95949.63;5055595;28;20186;-77
2021/01/11 05:22:39;;;;;;;13.00;8.30;;;;;;;-7.29;79.76;95953.00;5055659;28;20280;-77
2021/01/11 05:25:16;;;;;;;12.90;8.43;;;;;;;-7.28;79.99;95944.56;5073513;28;20181;-77
2021/01/11 05:27:42;;;;;;;11.93;7.50;;;;;;;-7.31;80.14;95950.53;5073358;28;20208;-77
2021/01/11 05:30:10;;;;;;;13.60;8.33;;;;;;;-7.29;79.96;95953.84;5055377;28;20177;-77
2021/01/11 05:32:36;;;;;;;13.80;8.13;;;;;;;-7.25;80.24;95945.31;5038871;28;20185;-77
2021/01/11 05:35:01;;;;;;;12.53;7.83;;;;;;;-7.27;79.94;95946.22;5055520;28;20191;-77
2021/01/11 05:37:42;;;;;;;13.30;7.93;;;;;;;-7.23;79.95;95948.69;5073269;28;20229;-77
2021/01/11 05:40:12;;;;;;;14.60;8.43;;;;;;;-7.19;79.56;95952.78;5055233;28;20270;-77
2021/01/11 05:42:38;;;;;;;13.60;8.73;;;;;;;-7.24;79.50;95946.19;5088768;28;20182;-77
2021/01/11 05:45:11;;;;;;;12.23;7.70;;;;;;;-7.21;78.86;95951.16;5055215;28;20226;-77
2021/01/11 05:48:03;;;;;;;11.33;7.37;;;;;;;-7.13;78.88;95941.75;5054868;28;20231;-74
2021/01/11 05:50:35;;;;;;;11.70;7.17;;;;;;;-7.12;77.85;95945.91;5070947;28;20264;-75
2021/01/11 05:53:01;;;;;;;11.23;6.40;;;;;;;-7.18;78.46;95949.41;5062980;28;20217;-75
2021/01/11 05:55:28;;;;;;;11.40;7.10;;;;;;;-7.14;78.35;95948.47;5060569;28;20597;-75
2021/01/11 05:57:57;;;;;;;12.37;7.50;;;;;;;-7.13;78.50;95952.66;5085063;28;20190;-74
2021/01/11 06:00:24;;;;;;;12.97;7.20;;;;;;;-7.08;78.13;95951.72;5051998;28;20209;-75
2021/01/11 06:02:50;;;;;;;10.87;7.40;;;;;;;-7.16;77.92;95960.28;5052713;28;20174;-73
2021/01/11 06:05:17;;;;;;;11.10;7.63;;;;;;;-7.18;78.57;95951.09;5052639;28;20663;-74
2021/01/11 06:07:44;;;;;;;11.00;7.17;;;;;;;-7.19;78.71;95952.78;5067593;28;20740;-74
2021/01/11 06:10:10;;;;;;;12.47;7.13;;;;;;;-7.07;77.85;95946.63;5063610;28;20594;-76
2021/01/11 06:12:36;;;;;;;12.37;7.83;;;;;;;-7.01;78.21;95945.69;5027027;28;20201;-75
2021/01/11 06:15:02;;;;;;;12.30;6.97;;;;;;;-7.02;76.62;95951.59;5029485;28;20192;-76
2021/01/11 06:17:30;;;;;;;11.00;7.70;;;;;;;-6.99;76.74;95956.56;5047399;28;20202;-75
2021/01/11 06:19:56;;;;;;;12.60;7.30;;;;;;;-7.04;76.58;95953.34;5030402;28;20209;-75
2021/01/11 06:22:21;;;;;;;11.47;7.87;;;;;;;-7.05;76.88;95952.50;5063307;28;20228;-75
2021/01/11 06:24:46;;;;;;;11.07;7.53;;;;;;;-7.04;77.08;95955.88;5062716;28;20276;-73
2021/01/11 06:27:15;;;;;;;10.20;7.03;;;;;;;-7.04;77.35;95945.75;5047967;28;20217;-77
2021/01/11 06:29:45;;;;;;;12.07;6.93;;;;;;;-6.97;76.74;95948.13;5029518;28;20182;-74
2021/01/11 06:32:19;;;;;;;11.73;6.77;;;;;;;-7.00;76.79;95948.19;5045077;28;20335;-76
2021/01/11 06:34:44;;;;;;;8.37;5.97;;;;;;;-6.90;76.82;95943.75;5062016;28;20657;-76
2021/01/11 06:37:21;;;;;;;10.17;6.37;;;;;;;-6.92;75.77;95938.75;5012383;28;20266;-76
2021/01/11 06:39:46;;;;;;;10.33;6.40;;;;;;;-7.04;76.27;95951.63;5045685;28;20181;-75
2021/01/11 06:42:12;;;;;;;11.50;6.73;;;;;;;-7.03;76.93;95940.69;5044824;28;20199;-73
2021/01/11 06:44:43;;;;;;;9.23;6.30;;;;;;;-7.02;76.67;95942.34;5044531;28;20671;-72
2021/01/11 06:47:09;;;;;;;9.77;6.43;;;;;;;-7.03;76.80;95944.91;5068695;28;20674;-73
2021/01/11 06:49:36;;;;;;;10.67;6.23;;;;;;;-7.05;77.26;95951.69;5040316;28;20306;-73
2021/01/11 06:52:08;;;;;;;10.33;6.43;;;;;;;-7.06;76.83;95943.28;5050202;28;20176;-76
2021/01/11 06:54:38;;;;;;;10.70;6.50;;;;;;;-7.07;77.08;95939.06;5049712;28;20184;-75
2021/01/11 06:57:13;;;;;;;10.13;6.27;;;;;;;-7.04;77.18;95943.25;5063626;28;20755;-75
2021/01/11 06:59:38;;;;;;;12.00;6.80;;;;;;;-6.98;76.85;95946.47;5060988;28;20195;-72
2021/01/11 07:02:20;;;;;;;10.53;6.60;;;;;;;-6.90;75.99;95941.22;5050037;28;20173;-75
2021/01/11 07:04:46;;;;;;;11.47;6.53;;;;;;;-6.92;75.85;95941.28;5034517;28;20609;-75
2021/01/11 07:07:23;;;;;;;10.00;6.83;;;;;;;-7.06;76.63;95940.75;5053078;28;20260;-75
2021/01/11 07:09:55;;;;;;;10.67;6.67;;;;;;;-7.03;76.52;95948.25;5081136;28;20205;-75
2021/01/11 07:12:20;;;;;;;11.77;7.63;;;;;;;-6.99;75.84;95941.44;5045710;28;20181;-75
2021/01/11 07:14:53;;;;;;;11.57;7.73;;;;;;;-6.86;75.48;95942.84;5082193;28;20184;-74
2021/01/11 07:17:38;;;;;;;11.93;7.27;;;;;;;-6.91;75.58;95955.56;5055070;28;20313;-75
2021/01/11 07:20:05;;;;;;;12.53;7.53;;;;;;;-6.98;75.79;95956.56;5067491;28;20278;-75
2021/01/11 07:22:31;;;;;;;10.47;7.30;;;;;;;-6.96;76.10;95957.38;5053105;28;20188;-73
2021/01/11 07:24:56;;;;;;;11.80;6.73;;;;;;;-7.00;76.23;95965.03;5038107;28;20222;-74
2021/01/11 07:27:21;;;;;;;13.43;7.37;;;;;;;-7.00;76.11;95957.44;5042085;28;20284;-74
2021/01/11 07:29:47;;;;;;;11.07;7.33;;;;;;;-6.99;76.05;95959.09;5049427;28;20262;-75
2021/01/11 07:32:12;;;;;;;11.10;7.07;;;;;;;-6.94;76.33;95959.84;5086335;28;20185;-73
2021/01/11 07:34:38;;;;;;;13.00;7.33;;;;;;;-6.99;76.65;95954.88;5068903;28;20182;-74
2021/01/11 07:37:03;;;;;;;13.13;8.07;;;;;;;-6.93;76.30;95964.03;5029281;28;20571;-74
2021/01/11 07:39:35;;;;;;;13.10;8.00;;;;;;;-6.84;76.12;95966.34;5052896;28;20236;-75
2021/01/11 07:42:06;;;;;;;11.13;7.93;;;;;;;-6.88;75.76;95960.56;5038686;28;20180;-74
2021/01/11 07:44:36;;;;;;;12.17;7.57;;;;;;;-6.77;75.91;95960.31;5069588;28;20245;-74
2021/01/11 07:47:10;;;;;;;28.13;14.50;;;;;;;-6.74;75.41;95954.34;5057887;28;20206;-74
2021/01/11 07:49:36;;;;;;;21.40;12.10;;;;;;;-6.66;74.76;95968.47;5039174;28;20591;-75
2021/01/11 07:52:05;;;;;;;23.63;12.50;;;;;;;-6.75;74.91;95980.47;5064157;28;20234;-74
2021/01/11 07:54:31;;;;;;;25.73;12.90;;;;;;;-6.70;75.00;95996.38;5070673;28;20637;-74
2021/01/11 07:56:57;;;;;;;16.00;9.60;;;;;;;-6.77;75.37;95998.19;5086164;28;20276;-74
2021/01/11 07:59:22;;;;;;;27.63;15.10;;;;;;;-6.69;75.48;95996.34;5086316;28;20656;-74
2021/01/11 08:01:48;;;;;;;36.17;16.60;;;;;;;-6.61;75.51;95994.47;5026152;28;20311;-73
2021/01/11 08:04:15;;;;;;;46.67;19.30;;;;;;;-6.51;75.10;95989.22;5064174;28;20180;-74
2021/01/11 08:06:57;;;;;;;45.83;17.50;;;;;;;-6.50;75.13;95994.22;5051800;28;20314;-74
2021/01/11 08:09:24;;;;;;;61.70;21.10;;;;;;;-6.49;75.23;95997.59;5085251;28;20656;-74
2021/01/11 08:12:03;;;;;;;97.30;30.00;;;;;;;-6.45;74.24;96000.00;5061019;28;20208;-74
2021/01/11 08:14:28;;;;;;;51.97;19.83;;;;;;;-6.38;73.85;95996.47;5052812;28;20186;-73
2021/01/11 08:16:56;;;;;;;35.80;17.03;;;;;;;-6.21;73.58;95992.72;5066759;28;20576;-74
2021/01/11 08:19:21;;;;;;;24.23;12.50;;;;;;;-6.24;74.02;95992.81;5056338;28;20541;-73
2021/01/11 08:21:55;;;;;;;17.30;9.37;;;;;;;-6.15;73.73;95978.25;5046705;28;20189;-73
2021/01/11 08:24:21;;;;;;;16.10;9.20;;;;;;;-6.10;73.94;95971.38;5052936;28;20272;-73
2021/01/11 08:26:50;;;;;;;23.33;11.37;;;;;;;-6.07;73.62;95983.94;5081791;28;20231;-74
2021/01/11 08:29:15;;;;;;;18.63;9.77;;;;;;;-5.94;73.83;95986.16;5089480;28;20193;-74
2021/01/11 08:31:43;;;;;;;12.63;8.03;;;;;;;-5.87;73.29;95982.59;5030666;28;20723;-74
2021/01/11 08:34:08;;;;;;;9.67;6.10;;;;;;;-5.78;73.08;95989.94;5089814;28;20216;-75
2021/01/11 08:36:34;;;;;;;11.80;7.63;;;;;;;-5.72;72.66;95984.75;5071730;28;20288;-74
2021/01/11 08:39:04;;;;;;;13.33;8.27;;;;;;;-5.60;72.80;95984.41;5051328;28;20181;-74
2021/01/11 08:41:32;;;;;;;13.40;8.40;;;;;;;-5.57;72.67;95986.84;5073814;28;20220;-74
2021/01/11 08:43:57;;;;;;;18.33;11.27;;;;;;;-5.41;72.28;95987.28;5070102;28;20219;-74
2021/01/11 08:46:22;;;;;;;16.27;9.63;;;;;;;-5.37;72.05;95983.00;5055954;28;20239;-75
2021/01/11 08:48:47;;;;;;;11.87;7.30;;;;;;;-5.31;70.88;95970.97;5055751;28;20288;-74
2021/01/11 08:51:24;;;;;;;15.23;8.93;;;;;;;-5.27;70.57;95987.75;5055935;28;20652;-74
2021/01/11 08:53:49;;;;;;;10.77;7.20;;;;;;;-5.26;71.16;95994.47;5055496;28;20206;-74
2021/01/11 08:56:26;;;;;;;10.30;6.57;;;;;;;-5.10;70.31;95992.34;5056097;28;20186;-74
2021/01/11 08:58:53;;;;;;;12.93;8.13;;;;;;;-4.98;71.10;95988.63;5068727;28;20200;-74
2021/01/11 09:01:22;;;;;;;11.27;7.47;;;;;;;-5.02;70.86;95982.84;5055037;28;20235;-74
2021/01/11 09:03:50;;;;;;;9.37;7.00;;;;;;;-4.99;70.36;95975.16;5055450;28;20177;-74
2021/01/11 09:06:34;;;;;;;12.80;8.47;;;;;;;-4.72;70.41;95978.59;5055750;28;20201;-74
2021/01/11 09:09:06;;;;;;;10.20;6.80;;;;;;;-4.76;69.67;95988.88;5055248;28;20207;-74
2021/01/11 09:11:32;;;;;;;9.63;6.27;;;;;;;-4.70;69.98;95996.28;5046478;28;20192;-75
2021/01/11 09:14:04;;;;;;;11.00;7.53;;;;;;;-4.74;70.05;96007.38;5086022;28;20265;-75
2021/01/11 09:16:31;;;;;;;11.60;7.43;;;;;;;-4.71;69.93;96018.25;5055540;28;20231;-74
2021/01/11 09:19:06;;;;;;;10.90;8.03;;;;;;;-4.49;70.47;96015.94;5054290;28;20228;-74
2021/01/11 09:21:31;;;;;;;9.70;6.87;;;;;;;-4.54;68.97;96017.75;5083524;28;20556;-74
2021/01/11 09:23:56;;;;;;;10.00;6.30;;;;;;;-4.41;68.69;96019.06;5052448;28;20185;-74
2021/01/11 09:26:22;;;;;;;10.23;6.57;;;;;;;-4.31;68.47;96022.97;5054761;28;20205;-74
2021/01/11 09:28:47;;;;;;;8.30;6.20;;;;;;;-4.23;68.02;96022.75;5071981;28;20572;-74
2021/01/11 09:31:12;;;;;;;9.63;6.67;;;;;;;-4.21;68.83;96018.44;5067408;28;20213;-75
2021/01/11 09:33:38;;;;;;;8.57;6.30;;;;;;;-4.02;67.80;96022.06;5055007;28;20209;-74
2021/01/11 09:36:03;;;;;;;10.20;7.37;;;;;;;-4.02;67.59;96027.16;5054514;28;20235;-75
2021/01/11 09:38:28;;;;;;;8.47;6.40;;;;;;;-3.91;68.07;96021.72;5069667;28;20198;-75
2021/01/11 09:40:54;;;;;;;9.23;5.93;;;;;;;-3.84;67.92;96020.66;5082562;28;20185;-74
2021/01/11 09:43:19;;;;;;;8.53;6.10;;;;;;;-3.87;67.14;96035.16;5045852;28;20190;-74
2021/01/11 09:45:44;;;;;;;12.40;6.27;;;;;;;-3.79;67.13;96030.66;5085018;28;20197;-74
2021/01/11 09:48:10;;;;;;;10.77;6.00;;;;;;;-3.78;66.77;96025.53;5071512;28;20291;-76
2021/01/11 09:50:38;;;;;;;9.77;6.47;;;;;;;-3.72;66.72;96027.84;5051598;28;20182;-74
2021/01/11 09:53:05;;;;;;;8.43;5.67;;;;;;;-3.81;66.34;96038.31;5070597;28;20208;-73
2021/01/11 09:55:30;;;;;;;10.10;6.40;;;;;;;-3.56;66.37;96030.72;5071039;28;20178;-73
2021/01/11 09:57:55;;;;;;;9.60;6.80;;;;;;;-3.46;66.41;96026.16;5069586;28;20224;-73
2021/01/11 10:00:21;;;;;;;9.33;6.17;;;;;;;-3.57;66.37;96023.16;5054233;28;20200;-74
2021/01/11 10:02:49;;;;;;;8.97;6.17;;;;;;;-3.42;65.32;96028.56;5072155;28;20190;-74
2021/01/11 10:05:17;;;;;;;8.90;6.07;;;;;;;-3.46;65.31;96018.56;5071142;28;20193;-74
2021/01/11 10:07:42;;;;;;;8.33;5.33;;;;;;;-3.39;64.93;96027.63;5065314;28;20209;-73
2021/01/11 10:10:08;;;;;;;7.50;5.70;;;;;;;-3.31;64.66;96019.75;5067065;28;20193;-74
2021/01/11 10:12:33;;;;;;;9.73;6.83;;;;;;;-3.32;65.94;96024.00;5081800;28;20193;-74
2021/01/11 10:14:58;;;;;;;9.90;6.70;;;;;;;-3.32;65.70;96024.00;5054305;28;20190;-73
2021/01/11 10:17:24;;;;;;;9.87;6.60;;;;;;;-3.32;65.30;96029.09;5070685;28;20743;-73
2021/01/11 10:19:49;;;;;;;8.47;5.87;;;;;;;-3.28;65.19;96024.72;5070251;28;20262;-74
2021/01/11 10:22:14;;;;;;;11.10;6.60;;;;;;;-3.11;65.44;96016.50;5071895;28;20215;-73
2021/01/11 10:24:39;;;;;;;9.50;6.77;;;;;;;-3.06;65.59;96017.19;5045567;28;20207;-73
2021/01/11 10:27:05;;;;;;;10.43;6.67;;;;;;;-2.99;65.50;96009.31;5095300;28;20214;-73
2021/01/11 10:29:30;;;;;;;12.00;6.67;;;;;;;-2.92;63.90;96010.72;5053945;28;20189;-73
2021/01/11 10:31:55;;;;;;;9.63;6.27;;;;;;;-3.14;64.40;95997.97;5065880;28;20190;-73
2021/01/11 10:34:22;;;;;;;7.90;6.00;;;;;;;-3.22;65.09;95992.31;5072011;28;20204;-73
2021/01/11 10:36:54;;;;;;;9.90;6.33;;;;;;;-2.99;64.23;95983.91;5045046;28;20185;-73
2021/01/11 10:39:21;;;;;;;9.73;6.83;;;;;;;-2.93;64.04;95985.38;5081888;28;20205;-73
2021/01/11 10:41:51;;;;;;;8.40;6.17;;;;;;;-3.06;64.22;95987.53;5068024;28;20187;-73
2021/01/11 10:44:17;;;;;;;8.87;5.93;;;;;;;-3.03;64.14;95978.97;5081715;28;20226;-73
2021/01/11 10:46:42;;;;;;;8.17;6.43;;;;;;;-3.02;64.29;95975.53;5050916;28;20211;-73
2021/01/11 10:49:08;;;;;;;7.70;5.87;;;;;;;-2.96;63.42;95975.31;5053382;28;20173;-74
2021/01/11 10:51:33;;;;;;;8.63;6.20;;;;;;;-2.92;63.86;95971.78;5053790;28;20210;-74
2021/01/11 10:53:59;;;;;;;9.40;6.20;;;;;;;-2.85;63.89;95983.38;5041991;28;20255;-73
2021/01/11 10:56:24;;;;;;;9.33;6.23;;;;;;;-2.96;64.19;95976.16;5054034;28;20175;-74
2021/01/11 10:58:50;;;;;;;8.97;5.63;;;;;;;-2.75;62.61;95978.78;5049742;28;20201;-74
2021/01/11 11:01:16;;;;;;;9.63;6.03;;;;;;;-2.69;63.64;95976.03;5051764;28;20655;-74
2021/01/11 11:03:44;;;;;;;7.60;5.70;;;;;;;-2.64;62.45;95982.59;5045518;28;20809;-75
2021/01/11 11:06:10;;;;;;;9.13;6.00;;;;;;;-2.84;63.03;95982.50;5080255;28;20751;-74
2021/01/11 11:08:36;;;;;;;8.40;5.73;;;;;;;-2.70;60.84;95985.38;5055424;28;20202;-73
2021/01/11 11:11:01;;;;;;;9.27;5.97;;;;;;;-2.73;62.67;95980.41;5043571;28;20187;-73
2021/01/11 11:13:26;;;;;;;9.07;5.73;;;;;;;-2.71;63.00;95986.25;5053565;28;20272;-74
2021/01/11 11:15:52;;;;;;;8.70;6.00;;;;;;;-2.89;62.47;95976.75;5036900;28;20605;-74
2021/01/11 11:18:17;;;;;;;9.00;5.80;;;;;;;-2.86;62.32;95981.72;5053533;28;20210;-74
2021/01/11 11:20:46;;;;;;;8.80;5.57;;;;;;;-2.91;61.87;95978.53;5048747;28;20211;-73
2021/01/11 11:23:12;;;;;;;6.60;5.63;;;;;;;-3.14;63.25;95987.81;5028891;28;20207;-73
2021/01/11 11:25:37;;;;;;;9.07;5.90;;;;;;;-2.87;62.96;95978.34;5071308;28;20183;-73
2021/01/11 11:28:03;;;;;;;9.80;6.60;;;;;;;-2.67;63.29;95981.88;5053112;28;20728;-74